Дата Пункты Температура Давл., мм. Влажн., % Ветер Погодные явления
Воздуха Воды Направл. Скорость
29.08.15 11:00 Одесса 26.0 22.0 762 71 Пн-З 2 12 часов
29.08.15 08:00 Одесса 25.0 22.0 761 63 Пн 0 09 часов
29.08.15 05:00 Одесса 23.0 22.0 761 69 Пд-З 4 06 часов
29.08.15 02:00 Одесса 26.0 22.0 761 45 Пд-З 3 03 часа
28.08.15 08:00 Одесса 25.0 22.0 761 52 Пд 1 21 час
28.08.15 05:00 Одесса 24.0 22.0 761 81 Пд 2 18 часов
28.08.15 02:00 Одесса 25.0 22.0 762 74 Пд-С 2 15 часов
28.08.15 11:00 Одесса 24.0 22.0 762 76 С 2 12 часов
28.08.15 08:00 Одесса 23.0 22.0 762 87 Пн-С 3 09 часов
28.08.15 05:00 Одесса 20.0 22.0 761 84 Пн-З 1 06 часов
28.08.15 02:00 Одесса 20.0 22.0 760 72 Пд-З 1 03 часа
27.08.15 08:00 Одесса 25.0 22.0 761 63 Пд-З 3 21 час
27.08.15 05:00 Одесса 26.0 22.0 760 62 Пд-З 3 18 часов
27.08.15 02:00 Одесса 26.0 22.0 761 70 Пд 4 15 часов
27.08.15 11:00 Одесса 25.0 22.0 761 69 Пд 2 12 часов
27.08.15 08:00 Одесса 24.0 22.0 761 61 З 1 09 часов
27.08.15 05:00 Одесса 19.0 22.0 760 72 З 2 06 часов
27.08.15 02:00 Одесса 20.0 22.0 761 79 З 2 03 часа
26.08.15 08:00 Одесса 23.0 22.0 761 63 Пд-З 3 21 час
26.08.15 05:00 Одесса 24.0 22.0 761 61 Пд 2 18 часов
Количество строк
351 352 353 354 355 356 357 358 359 360
Page 354 of 481